createdAt,value
2019-02-15T00:01:10.248Z,654.56
2019-02-15T00:11:15.126Z,654.46
2019-02-15T00:16:17.750Z,654.46
2019-02-15T00:21:20.049Z,654.46
2019-02-15T00:26:22.514Z,654.46
2019-02-15T00:31:24.951Z,654.46
2019-02-15T00:36:27.410Z,654.46
2019-02-15T00:41:29.895Z,654.46
2019-02-15T00:46:32.354Z,654.56
2019-02-15T00:51:34.784Z,654.46
2019-02-15T00:56:37.252Z,654.46
2019-02-15T01:01:39.744Z,654.36
2019-02-15T01:06:42.168Z,654.36
2019-02-15T01:11:44.660Z,654.26
2019-02-15T01:16:47.172Z,654.26
2019-02-15T01:21:49.537Z,654.16
2019-02-15T01:26:52.023Z,654.16
2019-02-15T01:31:54.474Z,654.06
2019-02-15T01:36:56.985Z,653.96
2019-02-15T01:41:59.388Z,653.96
2019-02-15T01:47:07.185Z,653.96
2019-02-15T01:52:04.313Z,653.86
2019-02-15T01:57:06.770Z,653.86
2019-02-15T02:02:09.207Z,653.86
2019-02-15T02:07:11.664Z,653.76
2019-02-15T02:12:14.130Z,653.76
2019-02-15T02:17:16.681Z,653.76
2019-02-15T02:22:19.025Z,653.66
2019-02-15T02:27:21.482Z,653.66
2019-02-15T02:32:23.953Z,653.66
2019-02-15T02:37:26.396Z,653.66
2019-02-15T02:42:28.865Z,653.76
2019-02-15T02:47:31.426Z,653.76
2019-02-15T02:52:33.768Z,653.76
2019-02-15T02:57:36.245Z,653.76
2019-02-15T03:02:38.738Z,653.66
2019-02-15T03:07:41.216Z,653.66
2019-02-15T03:12:43.603Z,653.66
2019-02-15T03:17:46.126Z,653.66
2019-02-15T03:22:48.526Z,653.66
2019-02-15T03:27:50.975Z,653.56
2019-02-15T03:32:53.442Z,653.56
2019-02-15T03:37:55.920Z,653.46
2019-02-15T03:42:58.509Z,653.46
2019-02-15T03:48:00.835Z,653.46
2019-02-15T03:53:03.267Z,653.46
2019-02-15T03:58:05.759Z,653.46
2019-02-15T04:03:08.189Z,653.46
2019-02-15T04:08:10.642Z,653.46
2019-02-15T04:13:13.114Z,653.36
2019-02-15T04:18:15.568Z,653.46
2019-02-15T04:23:18.144Z,653.46
2019-02-15T04:28:20.489Z,653.46
2019-02-15T04:33:22.913Z,653.46
2019-02-15T04:38:25.368Z,653.36
2019-02-15T04:43:27.872Z,653.36
2019-02-15T04:48:30.353Z,653.36
2019-02-15T04:53:32.758Z,653.36
2019-02-15T04:58:35.198Z,653.26
2019-02-15T05:03:37.714Z,653.26
2019-02-15T05:08:45.147Z,653.26
2019-02-15T05:13:42.588Z,653.26
2019-02-15T05:18:45.049Z,653.16
2019-02-15T05:23:47.653Z,653.26
2019-02-15T05:28:49.968Z,653.26
2019-02-15T05:33:52.455Z,653.26
2019-02-15T05:38:54.878Z,653.36
2019-02-15T05:43:57.326Z,653.36
2019-02-15T05:49:00.059Z,653.46
2019-02-15T05:54:02.287Z,653.46
2019-02-15T05:59:04.720Z,653.36
2019-02-15T06:04:07.155Z,653.26
2019-02-15T06:09:09.592Z,653.26
2019-02-15T06:14:12.069Z,653.26
2019-02-15T06:19:14.563Z,653.26
2019-02-15T06:24:16.974Z,653.36
2019-02-15T06:29:19.433Z,653.36
2019-02-15T06:34:21.888Z,653.46
2019-02-15T06:39:24.351Z,653.46
2019-02-15T06:44:26.805Z,653.46
2019-02-15T06:49:29.310Z,653.56
2019-02-15T06:54:31.731Z,653.56
2019-02-15T06:59:34.181Z,653.56
2019-02-15T07:04:36.638Z,653.66
2019-02-15T07:09:39.152Z,653.76
2019-02-15T07:14:41.658Z,653.86
2019-02-15T07:19:44.017Z,654.06
2019-02-15T07:24:47.241Z,654.26
2019-02-15T07:29:48.970Z,654.26
2019-02-15T07:34:51.438Z,654.46
2019-02-15T07:39:53.875Z,654.66
2019-02-15T07:44:56.310Z,654.86
2019-02-15T07:49:58.780Z,655.06
2019-02-15T07:55:01.294Z,655.16
2019-02-15T08:00:03.728Z,0
2019-02-15T08:05:06.164Z,0.4
2019-02-15T08:10:08.611Z,0.7
2019-02-15T08:15:11.121Z,1
2019-02-15T08:20:13.586Z,1.3
2019-02-15T08:25:16.014Z,1.9
2019-02-15T08:30:18.571Z,5.8
2019-02-15T08:35:21.042Z,11
2019-02-15T08:40:23.367Z,16
2019-02-15T08:45:25.840Z,20.1
2019-02-15T08:50:28.308Z,23.1
2019-02-15T08:55:30.750Z,25.1
2019-02-15T09:00:33.251Z,26.9
2019-02-15T09:05:35.664Z,28.2
2019-02-15T09:10:38.128Z,29.2
2019-02-15T09:15:40.774Z,30.2
2019-02-15T09:20:43.130Z,31.2
2019-02-15T09:30:48.048Z,32.5
2019-02-15T09:35:50.435Z,33.3
2019-02-15T09:40:52.908Z,33.8
2019-02-15T09:45:55.383Z,34.3
2019-02-15T09:50:57.826Z,34.9
2019-02-15T09:56:00.302Z,35.3
2019-02-15T10:01:02.769Z,35.7
2019-02-15T10:06:05.196Z,36.1
2019-02-15T10:11:07.653Z,36.5
2019-02-15T10:16:10.113Z,36.7
2019-02-15T10:21:12.576Z,37.1
2019-02-15T10:26:15.148Z,37.3
2019-02-15T10:31:17.588Z,37.6
2019-02-15T10:41:22.431Z,37.8
2019-02-15T10:46:24.894Z,37.9
2019-02-15T10:51:27.381Z,38
2019-02-15T10:56:29.827Z,38
2019-02-15T11:01:32.437Z,38.1
2019-02-15T11:06:34.752Z,38.2
2019-02-15T11:11:37.172Z,38.4
2019-02-15T11:16:46.928Z,38.5
2019-02-15T11:21:42.155Z,38.3
2019-02-15T11:26:44.569Z,38.2
2019-02-15T11:31:47.021Z,38
2019-02-15T11:36:49.477Z,37.3
2019-02-15T11:41:51.978Z,37.3
2019-02-15T11:46:56.652Z,37.5
2019-02-15T11:51:56.978Z,38.3
2019-02-15T11:56:59.330Z,38.7
2019-02-15T12:02:05.986Z,39
2019-02-15T12:07:04.282Z,39.1
2019-02-15T12:12:10.563Z,39.1
2019-02-15T12:17:09.171Z,39
2019-02-15T12:22:11.623Z,38.7
2019-02-15T12:27:14.147Z,38.6
2019-02-15T12:32:16.809Z,38.5
2019-02-15T12:37:19.085Z,38.3
2019-02-15T12:42:21.503Z,38
2019-02-15T12:47:23.925Z,37.6
2019-02-15T12:52:26.388Z,37.3
2019-02-15T12:57:28.851Z,36.9
2019-02-15T13:02:31.414Z,36.7
2019-02-15T13:07:33.827Z,36.5
2019-02-15T13:12:36.337Z,36.2
2019-02-15T13:17:38.852Z,35.3
2019-02-15T13:22:41.180Z,34.4
2019-02-15T13:27:43.696Z,33.3
2019-02-15T13:32:46.096Z,32.2
2019-02-15T13:37:48.585Z,31.1
2019-02-15T13:42:50.982Z,29.8
2019-02-15T13:47:53.517Z,28.5
2019-02-15T13:52:55.942Z,26.9
2019-02-15T13:57:58.357Z,25.3
2019-02-15T14:03:00.822Z,23.8
2019-02-15T14:08:03.275Z,22.5
2019-02-15T14:13:05.737Z,21.4
2019-02-15T14:18:08.216Z,20.6
2019-02-15T14:23:10.660Z,19.9
2019-02-15T14:28:13.103Z,19.4
2019-02-15T14:33:15.575Z,19.1
2019-02-15T14:38:18.036Z,18.8
2019-02-15T14:43:20.532Z,18.5
2019-02-15T14:48:22.939Z,18.3
2019-02-15T14:53:25.481Z,18.1
2019-02-15T14:58:27.859Z,17.9
2019-02-15T15:03:30.356Z,17.5
2019-02-15T15:08:33.127Z,17
2019-02-15T15:13:35.303Z,16.7
2019-02-15T15:18:37.753Z,16.3
2019-02-15T15:23:40.170Z,15.9
2019-02-15T15:28:42.603Z,15.5
2019-02-15T15:33:45.071Z,15.1
2019-02-15T15:38:47.656Z,14.7
2019-02-15T15:43:49.988Z,14.3
2019-02-15T15:48:52.446Z,13.9
2019-02-15T15:53:55.094Z,13.4
2019-02-15T15:58:57.338Z,12.8
2019-02-15T16:03:59.818Z,12.2
2019-02-15T16:09:02.321Z,11.6
2019-02-15T16:14:04.744Z,11.1
2019-02-15T16:19:07.282Z,10.6
2019-02-15T16:24:12.475Z,10.1
2019-02-15T16:29:13.906Z,9.6
2019-02-15T16:34:14.550Z,9
2019-02-15T16:39:17.004Z,8.6
2019-02-15T16:44:19.502Z,8.2
2019-02-15T16:49:21.985Z,7.9
2019-02-15T16:54:24.389Z,7.6
2019-02-15T16:59:26.844Z,7.4
2019-02-15T17:04:29.292Z,7.1
2019-02-15T17:09:31.762Z,6.9
2019-02-15T17:14:34.298Z,6.6
2019-02-15T17:19:36.669Z,6.5
2019-02-15T17:24:39.129Z,6.3
2019-02-15T17:29:41.587Z,6.1
2019-02-15T17:34:44.046Z,6
2019-02-15T17:39:46.562Z,5.8
2019-02-15T17:44:49.049Z,5.6
2019-02-15T17:49:51.450Z,5.5
2019-02-15T17:54:54.034Z,5.4
2019-02-15T17:59:56.337Z,5.3
2019-02-15T18:04:58.817Z,5.1
2019-02-15T18:10:01.341Z,5.1
2019-02-15T18:15:03.785Z,4.9
2019-02-15T18:20:06.232Z,4.8
2019-02-15T18:25:08.663Z,4.7
2019-02-15T18:30:11.073Z,4.6
2019-02-15T18:35:13.540Z,4.4
2019-02-15T18:40:15.994Z,4.3
2019-02-15T18:45:18.440Z,4.2
2019-02-15T18:50:20.971Z,4.1
2019-02-15T18:55:23.355Z,3.9
2019-02-15T19:00:25.886Z,3.8
2019-02-15T19:05:28.274Z,3.7
2019-02-15T19:10:30.766Z,3.6
2019-02-15T19:15:33.215Z,3.5
2019-02-15T19:20:35.664Z,0
2019-02-15T19:25:38.147Z,0
2019-02-15T19:30:40.615Z,0
2019-02-15T19:35:43.390Z,0
2019-02-15T19:40:45.569Z,0
2019-02-15T19:45:48.090Z,0
2019-02-15T19:50:50.542Z,0
2019-02-15T19:55:53.013Z,0
2019-02-15T20:00:55.545Z,0
2019-02-15T20:05:57.958Z,3.1
2019-02-15T20:11:00.417Z,3
2019-02-15T20:16:02.886Z,3
2019-02-15T20:21:05.397Z,3
2019-02-15T20:26:07.813Z,2.8
2019-02-15T20:31:10.263Z,2.8
2019-02-15T20:36:12.781Z,2.7
2019-02-15T20:41:15.218Z,2.6
2019-02-15T20:46:17.658Z,2.5
2019-02-15T20:51:20.139Z,2.4
2019-02-15T20:56:22.647Z,2.3
2019-02-15T21:01:25.061Z,2.1
2019-02-15T21:06:27.567Z,2.1
2019-02-15T21:11:30.047Z,2
2019-02-15T21:16:32.554Z,1.9
2019-02-15T21:21:34.918Z,1.8
2019-02-15T21:26:37.767Z,1.7
2019-02-15T21:31:39.857Z,1.6
2019-02-15T21:36:42.345Z,1.6
2019-02-15T21:41:44.795Z,1.7
2019-02-15T21:46:47.267Z,1.6
2019-02-15T21:51:49.731Z,1.5
2019-02-15T21:56:52.185Z,1.4
2019-02-15T22:01:54.645Z,1.4
2019-02-15T22:06:57.125Z,1.3
2019-02-15T22:11:59.589Z,1.2
2019-02-15T22:17:02.063Z,1.2
2019-02-15T22:22:04.487Z,1.1
2019-02-15T22:27:06.950Z,1.1
2019-02-15T22:32:09.420Z,1
2019-02-15T22:37:11.916Z,1
2019-02-15T22:42:14.343Z,0
2019-02-15T22:52:19.300Z,0
2019-02-15T22:57:21.784Z,0
2019-02-15T23:02:24.251Z,0.7
2019-02-15T23:07:26.697Z,0.7
2019-02-15T23:12:29.134Z,0.6
2019-02-15T23:17:31.647Z,0.6
2019-02-15T23:22:34.143Z,0.5
2019-02-15T23:27:36.556Z,0.4
2019-02-15T23:32:38.978Z,0.3
2019-02-15T23:37:41.447Z,0.3
2019-02-15T23:42:43.908Z,0.3
2019-02-15T23:47:46.400Z,0.3
2019-02-15T23:52:48.849Z,0.2
2019-02-15T23:57:51.301Z,0.2
